createdAt,value
2023-03-16T00:02:13.320Z,21.75
2023-03-16T00:04:40.263Z,21.75
2023-03-16T00:07:07.229Z,21.69
2023-03-16T00:09:34.141Z,21.63
2023-03-16T00:12:01.192Z,21.63
2023-03-16T00:14:28.133Z,21.56
2023-03-16T00:16:55.129Z,21.50
2023-03-16T00:19:22.066Z,21.50
2023-03-16T00:21:48.979Z,21.44
2023-03-16T00:24:15.899Z,21.44
2023-03-16T00:26:42.855Z,21.38
2023-03-16T00:29:09.754Z,21.31
2023-03-16T00:31:36.688Z,21.31
2023-03-16T00:34:03.641Z,21.25
2023-03-16T00:36:30.561Z,21.25
2023-03-16T00:38:57.499Z,21.19
2023-03-16T00:41:24.410Z,21.13
2023-03-16T00:43:51.345Z,21.13
2023-03-16T00:46:18.344Z,21.06
2023-03-16T00:48:45.320Z,21.06
2023-03-16T00:51:12.267Z,21.00
2023-03-16T00:53:39.173Z,21.00
2023-03-16T00:56:06.148Z,20.94
2023-03-16T00:58:33.081Z,20.94
2023-03-16T01:01:00.188Z,20.88
2023-03-16T01:03:27.181Z,20.88
2023-03-16T01:05:54.093Z,20.81
2023-03-16T01:08:21.015Z,20.81
2023-03-16T01:10:47.935Z,20.75
2023-03-16T01:13:14.886Z,20.75
2023-03-16T01:15:41.806Z,20.69
2023-03-16T01:18:08.713Z,20.69
2023-03-16T01:20:35.653Z,20.63
2023-03-16T01:23:02.564Z,20.63
2023-03-16T01:25:29.512Z,20.56
2023-03-16T01:27:56.437Z,20.56
2023-03-16T01:30:23.414Z,20.56
2023-03-16T01:32:50.484Z,20.50
2023-03-16T01:35:17.410Z,20.50
2023-03-16T01:37:44.420Z,20.44
2023-03-16T01:40:11.337Z,20.44
2023-03-16T01:42:38.250Z,20.38
2023-03-16T01:45:05.180Z,20.38
2023-03-16T01:47:32.100Z,20.31
2023-03-16T01:49:59.029Z,20.31
2023-03-16T01:52:25.951Z,20.25
2023-03-16T01:54:52.859Z,20.25
2023-03-16T01:57:19.836Z,20.25
2023-03-16T01:59:46.729Z,20.19
2023-03-16T02:02:13.681Z,20.19
2023-03-16T02:04:40.635Z,20.13
2023-03-16T02:07:07.771Z,20.13
2023-03-16T02:09:34.677Z,20.13
2023-03-16T02:12:01.605Z,20.06
2023-03-16T02:14:28.534Z,20.06
2023-03-16T02:16:55.437Z,20.06
2023-03-16T02:19:22.350Z,20.00
2023-03-16T02:21:49.311Z,20.00
2023-03-16T02:24:16.235Z,19.94
2023-03-16T02:26:43.157Z,19.94
2023-03-16T02:29:10.072Z,19.94
2023-03-16T02:31:37.005Z,19.88
2023-03-16T02:34:03.939Z,19.88
2023-03-16T02:36:30.857Z,19.81
2023-03-16T02:38:57.800Z,19.81
2023-03-16T02:41:24.748Z,19.81
2023-03-16T02:43:51.663Z,19.75
2023-03-16T02:46:18.633Z,19.75
2023-03-16T02:48:45.657Z,19.75
2023-03-16T02:51:12.679Z,19.69
2023-03-16T02:53:39.618Z,19.69
2023-03-16T02:56:06.567Z,19.69
2023-03-16T02:58:33.521Z,19.69
2023-03-16T03:01:00.425Z,19.63
2023-03-16T03:03:27.375Z,19.63
2023-03-16T03:05:54.378Z,19.56
2023-03-16T03:08:21.279Z,19.56
2023-03-16T03:10:48.225Z,19.56
2023-03-16T03:13:15.167Z,19.50
2023-03-16T03:15:42.081Z,19.50
2023-03-16T03:18:09.015Z,19.50
2023-03-16T03:20:35.935Z,19.44
2023-03-16T03:23:02.896Z,19.44
2023-03-16T03:25:29.792Z,19.44
2023-03-16T03:27:56.800Z,19.38
2023-03-16T03:30:23.760Z,19.38
2023-03-16T03:32:50.722Z,19.38
2023-03-16T03:35:17.678Z,19.31
2023-03-16T03:37:44.605Z,19.31
2023-03-16T03:40:11.547Z,19.31
2023-03-16T03:42:38.478Z,19.31
2023-03-16T03:45:05.393Z,19.25
2023-03-16T03:47:32.341Z,19.25
2023-03-16T03:49:59.252Z,19.25
2023-03-16T03:52:26.188Z,19.25
2023-03-16T03:54:53.120Z,19.19
2023-03-16T03:57:21.878Z,19.19
2023-03-16T03:59:48.947Z,19.19
2023-03-16T04:02:16.031Z,19.13
2023-03-16T04:04:43.034Z,19.13
2023-03-16T04:07:09.949Z,19.13
2023-03-16T04:09:36.863Z,19.13
2023-03-16T04:12:03.775Z,19.06
2023-03-16T04:14:30.699Z,19.06
2023-03-16T04:16:57.679Z,19.06
2023-03-16T04:19:24.640Z,19.00
2023-03-16T04:21:51.571Z,19.00
2023-03-16T04:24:18.477Z,19.00
2023-03-16T04:26:45.394Z,19.00
2023-03-16T04:29:12.298Z,18.94
2023-03-16T04:31:39.333Z,19.31
2023-03-16T04:34:06.254Z,19.50
2023-03-16T04:36:33.173Z,19.56
2023-03-16T04:39:00.139Z,19.56
2023-03-16T04:41:27.048Z,19.56
2023-03-16T04:43:54.024Z,19.50
2023-03-16T04:46:20.992Z,19.50
2023-03-16T04:48:47.935Z,20.94
2023-03-16T04:51:14.836Z,27.00
2023-03-16T04:53:41.757Z,30.88
2023-03-16T04:56:08.718Z,31.94
2023-03-16T04:58:35.633Z,32.13
2023-03-16T05:01:02.566Z,31.94
2023-03-16T05:03:29.541Z,28.13
2023-03-16T05:05:56.489Z,25.50
2023-03-16T05:08:23.412Z,26.69
2023-03-16T05:10:50.311Z,30.56
2023-03-16T05:13:17.246Z,32.44
2023-03-16T05:15:44.238Z,33.00
2023-03-16T05:18:11.214Z,32.13
2023-03-16T05:20:38.130Z,28.69
2023-03-16T05:23:06.241Z,27.69
2023-03-16T05:25:33.146Z,30.75
2023-03-16T05:28:00.075Z,33.00
2023-03-16T05:30:27.290Z,33.81
2023-03-16T05:32:54.501Z,33.88
2023-03-16T05:35:23.726Z,31.50
2023-03-16T05:37:51.171Z,29.50
2023-03-16T05:40:18.119Z,30.88
2023-03-16T05:42:45.137Z,33.25
2023-03-16T05:45:12.154Z,34.56
2023-03-16T05:47:39.060Z,34.69
2023-03-16T05:50:05.988Z,34.06
2023-03-16T05:52:32.973Z,33.88
2023-03-16T05:54:59.880Z,34.00
2023-03-16T05:57:26.821Z,34.88
2023-03-16T05:59:53.743Z,35.44
2023-03-16T06:02:20.644Z,35.75
2023-03-16T06:04:47.584Z,36.13
2023-03-16T06:07:14.518Z,36.44
2023-03-16T06:09:41.460Z,36.75
2023-03-16T06:12:08.370Z,37.00
2023-03-16T06:14:35.379Z,37.25
2023-03-16T06:17:02.347Z,37.25
2023-03-16T06:19:29.285Z,37.25
2023-03-16T06:21:56.252Z,37.25
2023-03-16T06:24:23.258Z,37.31
2023-03-16T06:26:50.179Z,37.31
2023-03-16T06:29:17.110Z,37.25
2023-03-16T06:31:44.067Z,37.38
2023-03-16T06:34:11.013Z,37.44
2023-03-16T06:36:37.945Z,37.31
2023-03-16T06:39:04.869Z,37.31
2023-03-16T06:41:31.790Z,37.31
2023-03-16T06:43:58.722Z,37.38
2023-03-16T06:46:25.681Z,37.50
2023-03-16T06:48:52.681Z,37.56
2023-03-16T06:51:19.584Z,37.63
2023-03-16T06:53:46.496Z,37.63
2023-03-16T06:56:15.797Z,37.44
2023-03-16T06:58:42.697Z,37.38
2023-03-16T07:01:09.723Z,37.31
2023-03-16T07:03:36.706Z,37.31
2023-03-16T07:06:03.634Z,37.19
2023-03-16T07:08:30.560Z,37.00
2023-03-16T07:10:57.488Z,36.81
2023-03-16T07:13:24.439Z,36.63
2023-03-16T07:15:51.445Z,36.38
2023-03-16T07:18:18.382Z,36.19
2023-03-16T07:20:45.301Z,36.13
2023-03-16T07:23:12.218Z,35.69
2023-03-16T07:25:39.150Z,35.31
2023-03-16T07:28:06.229Z,35.69
2023-03-16T07:30:33.171Z,35.88
2023-03-16T07:33:00.212Z,36.06
2023-03-16T07:35:27.204Z,36.19
2023-03-16T07:37:54.164Z,36.38
2023-03-16T07:40:21.112Z,36.56
2023-03-16T07:42:48.028Z,36.69
2023-03-16T07:45:14.932Z,36.81
2023-03-16T07:47:41.872Z,36.94
2023-03-16T07:50:08.786Z,37.06
2023-03-16T07:52:37.509Z,37.19
2023-03-16T07:55:04.536Z,37.31
2023-03-16T07:57:31.473Z,37.38
2023-03-16T07:59:58.449Z,37.44
2023-03-16T08:02:25.402Z,37.56
2023-03-16T08:04:52.381Z,37.56
2023-03-16T08:07:19.326Z,37.56
2023-03-16T08:09:46.231Z,37.44
2023-03-16T08:12:13.165Z,37.38
2023-03-16T08:14:40.068Z,37.38
2023-03-16T08:17:07.012Z,37.38
2023-03-16T08:19:33.926Z,37.38
2023-03-16T08:22:01.995Z,37.38
2023-03-16T08:24:29.122Z,37.44
2023-03-16T08:26:56.088Z,37.44
2023-03-16T08:29:23.020Z,37.31
2023-03-16T08:31:49.953Z,37.25
2023-03-16T08:34:16.926Z,37.19
2023-03-16T08:36:43.860Z,37.06
2023-03-16T08:39:12.084Z,36.88
2023-03-16T08:41:39.117Z,36.69
2023-03-16T08:44:06.097Z,36.50
2023-03-16T08:46:33.090Z,36.31
2023-03-16T08:49:00.033Z,36.13
2023-03-16T08:51:26.996Z,36.00
2023-03-16T08:53:53.912Z,36.00
2023-03-16T08:56:20.863Z,35.88
2023-03-16T08:58:48.109Z,35.94
2023-03-16T09:01:16.002Z,36.00
2023-03-16T09:03:42.968Z,36.06
2023-03-16T09:06:09.893Z,36.06
2023-03-16T09:08:36.846Z,36.19
2023-03-16T09:11:03.791Z,36.25
2023-03-16T09:13:30.716Z,36.38
2023-03-16T09:15:57.675Z,36.44
2023-03-16T09:18:24.586Z,36.50
2023-03-16T09:20:52.364Z,36.56
2023-03-16T09:23:19.273Z,36.63
2023-03-16T09:25:46.212Z,36.69
2023-03-16T09:28:13.130Z,36.81
2023-03-16T09:30:40.050Z,36.88
2023-03-16T09:33:06.996Z,36.94
2023-03-16T09:35:35.100Z,37.00
2023-03-16T09:38:07.010Z,37.00
2023-03-16T09:40:34.086Z,36.88
2023-03-16T09:43:00.994Z,36.75
2023-03-16T09:45:28.296Z,36.63
2023-03-16T09:47:55.364Z,36.44
2023-03-16T09:50:22.359Z,36.31
2023-03-16T09:52:49.320Z,36.19
2023-03-16T09:55:16.308Z,36.06
2023-03-16T09:57:43.203Z,36.00
2023-03-16T10:00:10.126Z,36.00
2023-03-16T10:02:37.052Z,36.00
2023-03-16T10:05:04.014Z,36.00
2023-03-16T10:07:30.960Z,36.06
2023-03-16T10:09:57.879Z,36.13
2023-03-16T10:12:24.810Z,36.19
2023-03-16T10:14:51.726Z,36.31
2023-03-16T10:17:18.724Z,36.38
2023-03-16T10:19:45.658Z,36.31
2023-03-16T10:22:12.577Z,36.25
2023-03-16T10:24:39.508Z,36.13
2023-03-16T10:27:06.456Z,36.00
2023-03-16T10:29:33.378Z,35.88
2023-03-16T10:32:00.401Z,35.75
2023-03-16T10:34:27.409Z,35.56
2023-03-16T10:36:54.341Z,35.56
2023-03-16T10:39:21.249Z,35.75
2023-03-16T10:41:48.200Z,35.88
2023-03-16T10:44:15.127Z,35.94
2023-03-16T10:46:42.211Z,36.00
2023-03-16T10:49:09.168Z,36.13
2023-03-16T10:51:36.120Z,36.25
2023-03-16T10:54:03.067Z,36.31
2023-03-16T10:56:29.985Z,36.44
2023-03-16T10:58:56.912Z,36.56
2023-03-16T11:01:23.877Z,36.63
2023-03-16T11:03:50.809Z,36.75
2023-03-16T11:06:17.740Z,36.81
2023-03-16T11:08:44.658Z,36.88
2023-03-16T11:11:11.577Z,36.88
2023-03-16T11:13:38.506Z,36.81
2023-03-16T11:16:05.431Z,36.75
2023-03-16T11:18:32.370Z,36.69
2023-03-16T11:20:59.302Z,36.63
2023-03-16T11:23:26.201Z,36.50
2023-03-16T11:25:53.118Z,36.38
2023-03-16T11:28:20.216Z,36.25
2023-03-16T11:30:47.211Z,36.06
2023-03-16T11:33:14.193Z,35.88
2023-03-16T11:35:52.777Z,35.63
2023-03-16T11:38:25.180Z,35.44
2023-03-16T11:40:52.114Z,35.38
2023-03-16T11:43:19.036Z,35.44
2023-03-16T11:45:46.095Z,35.56
2023-03-16T11:48:13.057Z,35.56
2023-03-16T11:50:40.049Z,35.63
2023-03-16T11:53:06.941Z,35.69
2023-03-16T11:55:33.852Z,35.81
2023-03-16T11:58:00.761Z,35.94
2023-03-16T12:00:27.704Z,36.00
2023-03-16T12:02:54.755Z,36.13
2023-03-16T12:05:21.677Z,36.25
2023-03-16T12:07:48.660Z,36.38
2023-03-16T12:10:15.695Z,36.44
2023-03-16T12:12:42.690Z,36.50
2023-03-16T12:15:09.666Z,36.31
2023-03-16T12:17:36.584Z,36.25
2023-03-16T12:20:03.508Z,36.13
2023-03-16T12:22:30.454Z,35.94
2023-03-16T12:24:57.398Z,35.81
2023-03-16T12:27:24.340Z,35.63
2023-03-16T12:29:51.263Z,35.50
2023-03-16T12:32:18.208Z,35.38
2023-03-16T12:34:45.130Z,35.25
2023-03-16T12:37:12.085Z,35.06
2023-03-16T12:39:39.002Z,34.94
2023-03-16T12:42:05.980Z,35.00
2023-03-16T12:44:32.951Z,35.00
2023-03-16T12:46:59.860Z,35.06
2023-03-16T12:49:26.794Z,35.06
2023-03-16T12:51:53.965Z,35.13
2023-03-16T12:54:20.914Z,35.19
2023-03-16T12:56:48.131Z,35.25
2023-03-16T12:59:15.073Z,35.31
2023-03-16T13:01:42.012Z,35.38
2023-03-16T13:04:08.977Z,35.38
2023-03-16T13:06:36.455Z,35.31
2023-03-16T13:09:03.505Z,35.19
2023-03-16T13:11:30.416Z,35.13
2023-03-16T13:13:57.388Z,35.00
2023-03-16T13:16:24.335Z,34.88
2023-03-16T13:18:51.279Z,34.75
2023-03-16T13:21:18.239Z,34.63
2023-03-16T13:23:45.184Z,34.50
2023-03-16T13:26:12.122Z,34.56
2023-03-16T13:28:39.066Z,34.63
2023-03-16T13:31:06.014Z,34.69
2023-03-16T13:33:32.931Z,34.69
2023-03-16T13:35:59.937Z,34.81
2023-03-16T13:38:26.867Z,34.88
2023-03-16T13:40:53.805Z,34.94
2023-03-16T13:43:20.751Z,35.00
2023-03-16T13:45:47.740Z,35.06
2023-03-16T13:48:14.681Z,35.00
2023-03-16T13:50:41.601Z,34.94
2023-03-16T13:53:08.505Z,34.81
2023-03-16T13:55:35.407Z,34.69
2023-03-16T13:58:02.477Z,34.63
2023-03-16T14:00:29.572Z,34.50
2023-03-16T14:02:56.576Z,34.38
2023-03-16T14:05:23.489Z,34.31
2023-03-16T14:07:50.397Z,34.44
2023-03-16T14:10:17.339Z,34.50
2023-03-16T14:12:44.258Z,34.56
2023-03-16T14:15:11.185Z,34.63
2023-03-16T14:17:38.112Z,34.69
2023-03-16T14:20:05.019Z,34.81
2023-03-16T14:22:31.964Z,34.88
2023-03-16T14:24:58.902Z,34.88
2023-03-16T14:27:25.838Z,34.88
2023-03-16T14:29:52.832Z,34.75
2023-03-16T14:32:19.961Z,34.69
2023-03-16T14:34:46.876Z,34.56
2023-03-16T14:37:13.791Z,34.44
2023-03-16T14:39:40.751Z,34.31
2023-03-16T14:42:07.669Z,34.19
2023-03-16T14:44:34.594Z,34.19
2023-03-16T14:47:01.518Z,34.25
2023-03-16T14:49:28.460Z,34.31
2023-03-16T14:51:55.405Z,34.38
2023-03-16T14:54:22.653Z,34.44
2023-03-16T14:56:49.589Z,34.50
2023-03-16T14:59:16.514Z,34.63
2023-03-16T15:01:43.485Z,34.69
2023-03-16T15:04:10.420Z,34.75
2023-03-16T15:06:37.318Z,34.75
2023-03-16T15:09:04.227Z,34.75
2023-03-16T15:11:31.142Z,34.63
2023-03-16T15:13:58.082Z,34.50
2023-03-16T15:16:25.021Z,34.38
2023-03-16T15:18:51.984Z,34.25
2023-03-16T15:21:18.950Z,34.13
2023-03-16T15:23:45.890Z,34.06
2023-03-16T15:26:12.826Z,34.13
2023-03-16T15:28:39.735Z,34.25
2023-03-16T15:31:06.687Z,34.38
2023-03-16T15:33:33.724Z,34.44
2023-03-16T15:36:00.659Z,34.50
2023-03-16T15:38:27.613Z,34.63
2023-03-16T15:40:54.565Z,34.75
2023-03-16T15:43:21.535Z,34.88
2023-03-16T15:45:48.446Z,35.00
2023-03-16T15:48:15.363Z,35.13
2023-03-16T15:50:42.293Z,35.13
2023-03-16T15:53:13.277Z,35.13
2023-03-16T15:55:44.703Z,35.06
2023-03-16T15:58:11.606Z,34.94
2023-03-16T16:00:38.543Z,34.81
2023-03-16T16:03:05.499Z,34.75
2023-03-16T16:05:32.424Z,34.63
2023-03-16T16:07:59.334Z,34.56
2023-03-16T16:10:26.265Z,34.63
2023-03-16T16:12:53.170Z,34.75
2023-03-16T16:15:20.083Z,34.81
2023-03-16T16:18:06.131Z,34.88
2023-03-16T16:20:33.934Z,35.00
2023-03-16T16:23:00.879Z,35.13
2023-03-16T16:25:28.204Z,35.25
2023-03-16T16:27:55.351Z,35.38
2023-03-16T16:30:22.256Z,35.44
2023-03-16T16:32:49.279Z,35.38
2023-03-16T16:35:16.272Z,35.31
2023-03-16T16:37:43.223Z,35.19
2023-03-16T16:40:10.333Z,35.06
2023-03-16T16:42:37.248Z,34.94
2023-03-16T16:45:04.188Z,34.81
2023-03-16T16:47:31.110Z,34.75
2023-03-16T16:49:58.033Z,34.69
2023-03-16T16:52:24.942Z,34.75
2023-03-16T16:54:51.881Z,34.81
2023-03-16T16:57:18.799Z,34.88
2023-03-16T16:59:45.707Z,34.94
2023-03-16T17:02:12.617Z,35.06
2023-03-16T17:04:39.585Z,35.19
2023-03-16T17:07:06.584Z,35.25
2023-03-16T17:09:33.520Z,35.38
2023-03-16T17:12:00.442Z,35.44
2023-03-16T17:14:27.362Z,35.50
2023-03-16T17:16:54.364Z,35.44
2023-03-16T17:19:21.609Z,35.31
2023-03-16T17:21:48.559Z,35.19
2023-03-16T17:24:15.458Z,35.06
2023-03-16T17:26:42.420Z,34.94
2023-03-16T17:29:09.327Z,34.81
2023-03-16T17:31:36.272Z,34.69
2023-03-16T17:34:03.197Z,34.69
2023-03-16T17:36:30.135Z,34.69
2023-03-16T17:38:57.043Z,34.69
2023-03-16T17:41:24.026Z,34.69
2023-03-16T17:43:50.966Z,34.75
2023-03-16T17:46:17.915Z,34.88
2023-03-16T17:48:44.860Z,34.88
2023-03-16T17:51:11.830Z,34.94
2023-03-16T17:53:38.736Z,35.00
2023-03-16T17:56:05.654Z,35.06
2023-03-16T17:58:32.574Z,35.13
2023-03-16T18:00:59.474Z,35.25
2023-03-16T18:03:28.083Z,35.31
2023-03-16T18:05:56.207Z,35.25
2023-03-16T18:08:23.226Z,35.13
2023-03-16T18:10:50.163Z,35.06
2023-03-16T18:13:17.077Z,34.94
2023-03-16T18:15:44.015Z,34.81
2023-03-16T18:18:10.979Z,34.75
2023-03-16T18:20:37.957Z,34.75
2023-03-16T18:23:04.889Z,34.81
2023-03-16T18:25:31.793Z,34.94
2023-03-16T18:27:58.724Z,35.06
2023-03-16T18:30:25.651Z,35.13
2023-03-16T18:32:52.668Z,35.25
2023-03-16T18:35:19.595Z,35.38
2023-03-16T18:37:46.509Z,35.50
2023-03-16T18:40:13.448Z,35.63
2023-03-16T18:42:40.364Z,35.75
2023-03-16T18:45:07.284Z,35.88
2023-03-16T18:47:34.202Z,36.00
2023-03-16T18:50:01.169Z,36.06
2023-03-16T18:52:28.115Z,36.13
2023-03-16T18:54:55.066Z,36.19
2023-03-16T18:57:21.993Z,36.25
2023-03-16T18:59:48.897Z,36.25
2023-03-16T19:02:15.866Z,36.25
2023-03-16T19:04:42.800Z,36.13
2023-03-16T19:07:11.030Z,36.00
2023-03-16T19:09:38.133Z,35.88
2023-03-16T19:12:05.140Z,35.81
2023-03-16T19:14:32.045Z,35.69
2023-03-16T19:16:58.969Z,35.56
2023-03-16T19:19:25.942Z,35.44
2023-03-16T19:21:52.886Z,35.31
2023-03-16T19:24:19.807Z,35.38
2023-03-16T19:26:46.764Z,35.38
2023-03-16T19:29:13.745Z,35.38
2023-03-16T19:31:40.770Z,35.38
2023-03-16T19:34:07.697Z,35.50
2023-03-16T19:36:34.681Z,35.63
2023-03-16T19:39:01.649Z,35.69
2023-03-16T19:41:28.568Z,35.75
2023-03-16T19:43:55.474Z,35.81
2023-03-16T19:46:22.413Z,35.94
2023-03-16T19:48:49.344Z,36.06
2023-03-16T19:51:16.235Z,36.13
2023-03-16T19:53:43.165Z,36.19
2023-03-16T19:56:10.069Z,36.25
2023-03-16T19:58:36.968Z,36.19
2023-03-16T20:01:03.925Z,36.06
2023-03-16T20:03:30.866Z,35.88
2023-03-16T20:05:57.797Z,35.69
2023-03-16T20:08:24.815Z,35.38
2023-03-16T20:10:51.749Z,35.13
2023-03-16T20:13:18.664Z,34.88
2023-03-16T20:15:45.567Z,34.56
2023-03-16T20:18:12.514Z,34.31
2023-03-16T20:20:39.487Z,34.06
2023-03-16T20:23:06.409Z,33.75
2023-03-16T20:25:33.340Z,33.50
2023-03-16T20:28:00.281Z,33.19
2023-03-16T20:30:27.248Z,32.94
2023-03-16T20:32:54.212Z,32.69
2023-03-16T20:35:21.221Z,32.38
2023-03-16T20:37:48.129Z,32.19
2023-03-16T20:40:15.043Z,31.94
2023-03-16T20:42:41.987Z,31.69
2023-03-16T20:45:09.941Z,31.44
2023-03-16T20:47:37.971Z,31.19
2023-03-16T20:50:04.871Z,31.00
2023-03-16T20:52:31.812Z,30.81
2023-03-16T20:54:58.728Z,30.56
2023-03-16T20:57:25.663Z,30.38
2023-03-16T20:59:52.566Z,30.19
2023-03-16T21:02:19.492Z,29.94
2023-03-16T21:04:46.771Z,29.75
2023-03-16T21:07:13.712Z,29.56
2023-03-16T21:09:42.093Z,29.38
2023-03-16T21:12:10.382Z,29.19
2023-03-16T21:14:37.283Z,29.00
2023-03-16T21:17:04.208Z,28.81
2023-03-16T21:19:31.109Z,28.69
2023-03-16T21:21:58.041Z,28.50
2023-03-16T21:24:24.994Z,28.38
2023-03-16T21:26:51.904Z,28.19
2023-03-16T21:29:18.816Z,28.06
2023-03-16T21:31:45.763Z,27.88
2023-03-16T21:34:12.723Z,27.75
2023-03-16T21:36:39.648Z,27.63
2023-03-16T21:39:06.598Z,27.50
2023-03-16T21:41:33.514Z,27.38
2023-03-16T21:44:00.515Z,27.25
2023-03-16T21:46:27.457Z,27.13
2023-03-16T21:48:54.417Z,27.00
2023-03-16T21:51:21.323Z,26.88
2023-03-16T21:53:48.227Z,26.75
2023-03-16T21:56:15.157Z,26.63
2023-03-16T21:58:42.089Z,26.50
2023-03-16T22:01:09.038Z,26.44
2023-03-16T22:03:50.198Z,26.31
2023-03-16T22:06:18.102Z,26.19
2023-03-16T22:08:45.015Z,26.06
2023-03-16T22:11:11.922Z,25.94
2023-03-16T22:13:38.856Z,25.88
2023-03-16T22:16:05.803Z,25.75
2023-03-16T22:18:32.764Z,25.69
2023-03-16T22:20:59.702Z,25.56
2023-03-16T22:23:26.629Z,25.44
2023-03-16T22:25:53.548Z,25.38
2023-03-16T22:28:20.474Z,25.25
2023-03-16T22:30:47.385Z,25.19
2023-03-16T22:33:14.303Z,25.06
2023-03-16T22:35:41.288Z,25.00
2023-03-16T22:38:08.200Z,24.88
2023-03-16T22:40:35.126Z,24.81
2023-03-16T22:43:02.027Z,24.75
2023-03-16T22:45:29.265Z,24.63
2023-03-16T22:47:56.398Z,24.56
2023-03-16T22:50:23.317Z,24.44
2023-03-16T22:52:50.241Z,24.38
2023-03-16T22:55:17.156Z,24.31
2023-03-16T22:57:44.076Z,24.19
2023-03-16T23:00:11.003Z,24.13
2023-03-16T23:02:37.900Z,24.06
2023-03-16T23:05:04.854Z,23.94
2023-03-16T23:07:31.782Z,23.88
2023-03-16T23:09:58.731Z,23.75
2023-03-16T23:12:25.645Z,23.63
2023-03-16T23:14:52.582Z,23.56
2023-03-16T23:17:19.526Z,23.50
2023-03-16T23:19:46.462Z,23.44
2023-03-16T23:22:13.427Z,23.38
2023-03-16T23:24:40.339Z,23.31
2023-03-16T23:27:07.257Z,23.25
2023-03-16T23:29:34.164Z,23.25
2023-03-16T23:32:01.105Z,23.19
2023-03-16T23:34:28.042Z,23.13
2023-03-16T23:36:55.138Z,23.06
2023-03-16T23:39:22.089Z,23.00
2023-03-16T23:41:49.022Z,23.00
2023-03-16T23:44:15.924Z,22.94
2023-03-16T23:46:42.898Z,22.81
2023-03-16T23:49:09.812Z,22.75
2023-03-16T23:51:36.737Z,22.69
2023-03-16T23:54:03.652Z,22.63
2023-03-16T23:56:30.594Z,22.56
2023-03-16T23:58:57.523Z,22.50
